• Join FlightAware (Why Join?)
  • Login
  • US Flag 
10:26PM EDT


 

Airport Tracker/Info


-or-


 

Live Flight TrackerFlight Track Log ✈ ASQ4492 ✈ 15-Apr-2013 ✈ KIAH - KBTR

Flight Track Log - Related Links

Times and Time Zones

All times are in EDT time to prevent confusion due to time zone crossing. See the ASQ4492 flight status page for this flight to view local times or setup timezone preferences in your user account.

Time Position Orientation Groundspeed Altitude Reporting Facility
EDT Latitude Longitude Course Direction KTS MPH feet Rate Location/Type
08:32PM 29.9834 -94.5281 90° East  Level FlightAware Approximate
08:33PM 29.9834 -94.4130 90° East  Level FlightAware Approximate
08:34PM 29.9837 -94.2981 77° East  Level FlightAware Approximate
08:35PM 30.0062 -94.1860 77° East  Level FlightAware Approximate
08:36PM 30.0214 -94.0725 85° East  Level FlightAware Approximate
08:37PM 30.0302 -93.9579 85° East  Level FlightAware Approximate
08:38PM 30.0425 -93.8437 82° East  Level FlightAware Approximate
08:39PM 30.0567 -93.7298 82° East  Level FlightAware Approximate
08:40PM 30.0708 -93.6158 82° East  Level FlightAware Approximate
08:41PM 30.0848 -93.5018 82° East  Level FlightAware Approximate
08:42PM 30.0987 -93.3878 82° East  Level FlightAware Approximate
08:43PM 30.1125 -93.2737 82° East  Level FlightAware Approximate
08:44PM 30.1262 -93.1596 82° East  Level FlightAware Approximate
08:45PM 30.1445 -93.0465 76° East  Level FlightAware Approximate
08:46PM 30.1677 -92.9344 76° East  Level FlightAware Approximate
08:47PM 30.1908 -92.8223 77° East  Level FlightAware Approximate
08:48PM 30.2139 -92.7101 77° East  Level FlightAware Approximate
08:49PM 30.2368 -92.5979 77° East  Level FlightAware Approximate
08:50PM 30.2561 -92.4849 82° East  Level FlightAware Approximate
08:51PM 30.2722 -92.3711 77° East  Level FlightAware Approximate
08:52PM 30.2938 -92.2584 77° East  Level FlightAware Approximate
08:53PM 30.3152 -92.1457 78° East  Level FlightAware Approximate
08:54PM 30.3335 -92.0326 78° East  Level FlightAware Approximate
08:55PM 30.3540 -91.9196 78° East  Level FlightAware Approximate
08:56PM 30.3773 -91.8074 74° East  Level FlightAware Approximate
08:57PM 30.4051 -91.6965 74° East  Level FlightAware Approximate
08:58PM 30.4197 -91.5832 78° East  Level FlightAware Approximate
08:59PM 30.4403 -91.4701 78° East  Level FlightAware Approximate
09:00PM 30.4646 -91.3581 74° East  Level FlightAware Approximate
09:01PM 30.4914 -91.2506 60° Northeast  Level FlightAware Approximate
09:02PM 30.5157 -91.1394 79° East  Level FlightAware Approximate
09:03PM 30.5167 -91.1333 79° East  Level FlightAware Approximate
09:04PM 30.5329 -91.1499 79° East  Level Estimated
09:05PM 30.5329 -91.1499 79° East  Level Estimated
09:06PM 30.5329 -91.1499 79° East  Level Estimated